メインページ
METAR-TAF:

METAR-TAF

空港 :

イカルイト, ヌナブト準州, カナダ

イカルイト空港

緯度: 63-45N, 経度: 068-33W, 海抜: 34m

現時点の気象観測

当レポートは1時間38分前の21:00(UTC)に作成
の風 16kt、最大22ktの突風を伴う
気温 9°C
湿度 76%
気圧 1004 hPa
視程: 48.3km
高度4900ftの雲はほとんどない
高度14000ftの雲は散在している
高度26000ftの千切れ雲あり

METAR: CYFB 262100Z 17016G22KT 30SM FEW049 SCT140 BKN260 09/05 A2966 RMK SC2AC2CI2 SLP048

時間: 18:38 (22:38 UTC)

予報

当レポートは4時間59分前の17:39(UTC)に作成
予報は26日の 18時(UTC)から 27日の 18時(UTC)まで有効
南/南東の風 10kt
視程: 10km
高度10000ftの雲はほとんどない
高度24000ftの千切れ雲あり
26日の 18時(UTC)から 26日の 20時(UTC)まで徐々に
南/南東の風 15kt、最大25ktの突風を伴う
26日の 2000時(UTC)から
南/南東の風 15kt、最大25ktの突風を伴う
視程: 10km
高度5000ftの雲は散在している
高度10000ftの千切れ雲あり
26日の 20時(UTC)から 26日の 24時(UTC)まで一時的に
高度5000ftの千切れ雲あり
27日の 0000時(UTC)から
南/南東の風 15kt、最大25ktの突風を伴う
視程: 10km
高度2000ftの雲は散在している
高度5000ftの千切れ雲あり
27日の 00時(UTC)から 27日の 03時(UTC)まで一時的に
視程: 10km
高度2000ftの千切れ雲あり
高度5000ftの千切れ雲あり
小雨
27日の 0300時(UTC)から
南/南東の風 20kt、最大30ktの突風を伴う
視程: 3.2km
高度500ftの千切れ雲あり
高度2000ftの曇り
小雨, 靄

TAF: CYFB 261739Z 2618/2718 15010KT P6SM FEW100 BKN240 BECMG 2618/2620 15015G25KT FM262000 15015G25KT P6SM SCT050 BKN100 TEMPO 2620/2624 BKN050 FM270000 15015G25KT P6SM SCT020 BKN050 TEMPO 2700/2703 P6SM -RA BKN020 BKN050 FM270300 15020G30KT 2SM -RA BR BKN005 OVC020 RMK NXT FCST BY 270000Z

4,000以上の空港の気象観測と天気予報(METAR報とTAF報)

利用可能な観測所は地図上に黄色い丸と赤い丸で示す。

丸の上にカーソルを重ねると観測所名を参照できる。

次にクリックすると気象観測と天気予報を参照できる。

マップの切り替え:黒色「×」印の緑ボタンをクリックして拡大、「-」印の緑ボタンをクリックして縮小、緑色の三角印をクリックして隣りの地図に切り替え


METAR-TAF: